Time;durP1;ratioP1;P1;durP2;ratioP2;P2;SDS_P1;SDS_P2;PMS_P1;PMS_P2;Temp;Humidity;BMP_temperature;BMP_pressure;BME280_temperature;BME280_humidity;BME280_pressure;Samples;Min_cycle;Max_cycle;Signal;HPM_P1;HPM_P2
2023/03/07 00:01:29;;;;;;;13.07;8.27;;;3.50;99.90;;;;;;7367071;19;20027;-63
2023/03/07 00:03:57;;;;;;;15.50;8.57;;;3.70;99.90;;;;;;7370505;19;20021;-64
2023/03/07 00:06:27;;;;;;;14.57;8.52;;;3.60;99.90;;;;;;7368290;19;20090;-63
2023/03/07 00:08:59;;;;;;;12.40;7.80;;;3.60;99.90;;;;;;7371124;19;20018;-64
2023/03/07 00:11:32;;;;;;;10.45;6.82;;;3.70;99.90;;;;;;7371872;19;20484;-63
2023/03/07 00:13:58;;;;;;;10.32;6.22;;;3.50;99.90;;;;;;7368439;19;20042;-64
2023/03/07 00:16:25;;;;;;;10.10;5.43;;;3.60;99.90;;;;;;7376668;19;20027;-64
2023/03/07 00:18:52;;;;;;;11.45;5.60;;;3.60;99.90;;;;;;7372024;19;20011;-64
2023/03/07 00:21:20;;;;;;;6.18;4.47;;;3.70;99.90;;;;;;7371747;19;20788;-65
2023/03/07 00:23:47;;;;;;;5.65;3.40;;;3.70;99.90;;;;;;7370672;19;20021;-64
2023/03/07 00:26:16;;;;;;;8.05;3.70;;;3.60;99.90;;;;;;7371037;19;20059;-64
2023/03/07 00:28:44;;;;;;;6.30;3.30;;;3.60;99.90;;;;;;7372031;19;20027;-64
2023/03/07 00:31:11;;;;;;;6.00;3.30;;;3.60;99.90;;;;;;7373024;19;20007;-63
2023/03/07 00:33:38;;;;;;;5.13;3.05;;;3.70;99.90;;;;;;7372334;19;20038;-63
2023/03/07 00:36:12;;;;;;;8.23;3.30;;;3.70;99.90;;;;;;7371965;19;20036;-64
2023/03/07 00:38:38;;;;;;;7.00;3.67;;;3.60;99.90;;;;;;7371696;19;20106;-64
2023/03/07 00:41:14;;;;;;;7.93;3.20;;;3.60;99.90;;;;;;7373761;19;20037;-61
2023/03/07 00:43:42;;;;;;;6.68;3.90;;;3.60;99.90;;;;;;7368343;19;20018;-61
2023/03/07 00:46:09;;;;;;;5.20;3.08;;;3.60;99.90;;;;;;7372509;19;20023;-61
2023/03/07 00:48:37;;;;;;;6.60;2.00;;;3.70;99.90;;;;;;7370055;19;20007;-61
2023/03/07 00:51:07;;;;;;;;;;;3.60;99.90;;;;;;7375099;19;20546;-61
2023/03/07 00:53:34;;;;;;;4.47;1.58;;;3.60;99.90;;;;;;7364347;19;19923;-61
2023/03/07 00:56:06;;;;;;;4.05;1.90;;;3.60;99.90;;;;;;7371747;19;20018;-63
2023/03/07 00:58:35;;;;;;;4.20;1.83;;;3.60;99.90;;;;;;7368616;19;20022;-64
2023/03/07 01:01:06;;;;;;;6.53;1.70;;;3.60;99.90;;;;;;7368474;19;20050;-64
2023/03/07 01:03:34;;;;;;;4.65;1.50;;;3.60;99.90;;;;;;7368113;19;20041;-61
2023/03/07 01:06:05;;;;;;;2.97;1.63;;;3.60;99.90;;;;;;7367244;19;20668;-61
2023/03/07 01:08:33;;;;;;;3.08;1.42;;;3.60;99.90;;;;;;7370139;19;20022;-61
2023/03/07 01:11:02;;;;;;;4.38;1.75;;;3.60;99.90;;;;;;7366750;19;20026;-61
2023/03/07 01:13:46;;;;;;;2.55;1.40;;;3.60;99.90;;;;;;7371053;19;20403;-61
2023/03/07 01:16:19;;;;;;;3.70;1.70;;;3.60;99.90;;;;;;7370689;19;20018;-61
2023/03/07 01:18:49;;;;;;;3.63;1.90;;;3.70;99.90;;;;;;7371208;19;20097;-61
2023/03/07 01:21:22;;;;;;;;;;;3.60;99.90;;;;;;7371258;19;20569;-61
2023/03/07 01:23:49;;;;;;;6.00;1.95;;;3.60;99.90;;;;;;7370492;19;20614;-61
2023/03/07 01:26:18;;;;;;;2.67;1.50;;;3.60;99.90;;;;;;7374116;19;20039;-61
2023/03/07 01:28:45;;;;;;;5.40;2.10;;;3.60;99.90;;;;;;7378340;19;20036;-62
2023/03/07 01:31:13;;;;;;;5.00;1.80;;;3.60;99.90;;;;;;7379522;19;20019;-61
2023/03/07 01:33:40;;;;;;;5.72;2.08;;;3.60;99.90;;;;;;7379544;19;20048;-64
2023/03/07 01:36:16;;;;;;;4.40;2.22;;;3.50;99.90;;;;;;7375935;19;20037;-65
2023/03/07 01:38:42;;;;;;;8.30;2.25;;;3.50;99.90;;;;;;7377067;19;20152;-64
2023/03/07 01:41:10;;;;;;;5.88;2.20;;;3.50;99.90;;;;;;7377031;19;20051;-65
2023/03/07 01:43:44;;;;;;;8.55;2.40;;;3.50;99.90;;;;;;7377314;19;20018;-65
2023/03/07 01:46:19;;;;;;;6.83;2.30;;;3.50;99.90;;;;;;7375555;19;20053;-65
2023/03/07 01:48:59;;;;;;;6.07;2.20;;;3.40;99.90;;;;;;7376580;19;20077;-64
2023/03/07 01:51:28;;;;;;;8.50;2.63;;;3.40;99.90;;;;;;7377015;19;20022;-64
2023/03/07 01:53:57;;;;;;;6.88;1.90;;;3.40;99.90;;;;;;7377474;19;20022;-64
2023/03/07 01:56:24;;;;;;;7.63;1.83;;;3.40;99.90;;;;;;7377779;19;20469;-65
2023/03/07 01:58:52;;;;;;;7.28;2.10;;;3.30;99.90;;;;;;7376919;19;20019;-64
2023/03/07 02:01:18;;;;;;;6.05;1.83;;;3.20;99.90;;;;;;7374830;19;20033;-65
2023/03/07 02:03:50;;;;;;;6.28;1.88;;;3.10;99.90;;;;;;7373719;19;21020;-64
2023/03/07 02:06:17;;;;;;;;;;;3.10;99.90;;;;;;7373352;19;20760;-64
2023/03/07 02:08:47;;;;;;;4.90;1.80;;;3.10;99.90;;;;;;7373691;19;19926;-64
2023/03/07 02:11:14;;;;;;;6.05;1.85;;;3.10;99.90;;;;;;7377643;19;20792;-64
2023/03/07 02:13:41;;;;;;;7.43;1.77;;;3.10;99.90;;;;;;7374573;19;20018;-61
2023/03/07 02:16:07;;;;;;;6.07;1.73;;;3.10;99.90;;;;;;7375648;19;20049;-61
2023/03/07 02:18:41;;;;;;;9.90;2.05;;;3.00;99.90;;;;;;7375527;19;20863;-61
2023/03/07 02:21:38;;;;;;;3.83;1.60;;;3.00;99.90;;;;;;7373402;19;20018;-61
2023/03/07 02:24:23;;;;;;;3.47;1.73;;;3.00;99.90;;;;;;7375338;19;20033;-61
2023/03/07 02:26:52;;;;;;;9.23;2.40;;;3.00;99.90;;;;;;7377800;19;20025;-61
2023/03/07 02:29:19;;;;;;;10.07;2.30;;;3.00;99.90;;;;;;7373432;19;20081;-62
2023/03/07 02:31:46;;;;;;;9.07;2.05;;;3.10;99.90;;;;;;7374963;19;20021;-61
2023/03/07 02:34:21;;;;;;;8.40;2.40;;;3.00;99.90;;;;;;7374684;19;20082;-61
2023/03/07 02:37:07;;;;;;;5.85;2.00;;;3.10;99.90;;;;;;7371551;19;20660;-61
2023/03/07 02:39:34;;;;;;;8.27;2.28;;;3.00;99.90;;;;;;7366945;19;20022;-61
2023/03/07 02:42:07;;;;;;;9.00;2.40;;;3.00;99.90;;;;;;7374774;19;20022;-61
2023/03/07 02:44:45;;;;;;;;;;;3.00;99.90;;;;;;7374783;19;20110;-61
2023/03/07 02:47:13;;;;;;;12.10;2.47;;;3.00;99.90;;;;;;7376134;19;19929;-61
2023/03/07 02:49:39;;;;;;;8.82;1.63;;;3.00;99.90;;;;;;7374832;19;20022;-61
2023/03/07 02:52:06;;;;;;;8.15;2.30;;;3.00;99.90;;;;;;7373727;19;20025;-61
2023/03/07 02:54:32;;;;;;;11.13;2.65;;;3.00;99.90;;;;;;7370194;19;20114;-61
2023/03/07 02:56:58;;;;;;;10.98;2.47;;;2.90;99.90;;;;;;7376870;19;20680;-61
2023/03/07 02:59:25;;;;;;;11.05;2.10;;;2.90;99.90;;;;;;7370609;19;20006;-62
2023/03/07 03:01:51;;;;;;;11.75;2.38;;;2.80;99.90;;;;;;7371272;19;20706;-61
2023/03/07 03:04:23;;;;;;;10.27;2.40;;;2.90;99.90;;;;;;7370099;19;20019;-61
2023/03/07 03:06:49;;;;;;;11.02;1.65;;;2.80;99.90;;;;;;7369445;19;20602;-61
2023/03/07 03:09:16;;;;;;;12.35;2.00;;;2.90;99.90;;;;;;7367032;19;20036;-61
2023/03/07 03:11:42;;;;;;;7.53;2.17;;;2.90;99.90;;;;;;7367284;19;20386;-61
2023/03/07 03:14:09;;;;;;;10.35;2.25;;;2.90;99.90;;;;;;7371615;19;20015;-61
2023/03/07 03:16:35;;;;;;;7.97;1.85;;;2.90;99.90;;;;;;7369976;19;20656;-62
2023/03/07 03:19:02;;;;;;;10.27;2.22;;;2.80;99.90;;;;;;7368190;19;20098;-62
2023/03/07 03:21:28;;;;;;;11.57;1.77;;;2.80;99.90;;;;;;7367218;19;20022;-61
2023/03/07 03:23:54;;;;;;;12.10;2.22;;;2.70;99.90;;;;;;7371533;19;20018;-61
2023/03/07 03:26:21;;;;;;;8.98;1.70;;;2.70;99.90;;;;;;7369611;19;20031;-61
2023/03/07 03:28:48;;;;;;;8.40;1.67;;;2.80;99.90;;;;;;7371780;19;20018;-62
2023/03/07 03:31:14;;;;;;;10.15;1.67;;;2.70;99.90;;;;;;7370913;19;20043;-64
2023/03/07 03:33:42;;;;;;;6.18;1.70;;;2.60;99.90;;;;;;7371686;19;20014;-64
2023/03/07 03:36:15;;;;;;;7.65;2.08;;;2.60;99.90;;;;;;7370324;19;20026;-64
2023/03/07 03:38:44;;;;;;;9.02;1.58;;;2.50;99.90;;;;;;7368254;19;20031;-64
2023/03/07 03:41:17;;;;;;;12.88;2.45;;;2.50;99.90;;;;;;7370775;19;20766;-64
2023/03/07 03:43:45;;;;;;;16.33;1.77;;;2.50;99.90;;;;;;7366230;19;20037;-64
2023/03/07 03:46:12;;;;;;;8.75;1.45;;;2.40;99.90;;;;;;7365660;19;20022;-64
2023/03/07 03:48:39;;;;;;;11.60;3.00;;;2.40;99.90;;;;;;7366866;19;20026;-64
2023/03/07 03:51:11;;;;;;;9.98;2.10;;;2.40;99.90;;;;;;7369107;19;20098;-64
2023/03/07 03:53:38;;;;;;;;;;;2.40;99.90;;;;;;7365104;19;20019;-64
2023/03/07 03:56:17;;;;;;;9.98;1.80;;;2.50;99.90;;;;;;7367631;19;19929;-64
2023/03/07 03:58:50;;;;;;;14.75;2.00;;;2.50;99.90;;;;;;7370396;19;20089;-64
2023/03/07 04:01:18;;;;;;;13.60;1.77;;;2.50;99.90;;;;;;7367601;19;20049;-64
2023/03/07 04:03:50;;;;;;;12.77;1.95;;;2.50;99.90;;;;;;7368063;19;20022;-65
2023/03/07 04:06:29;;;;;;;10.52;2.03;;;2.50;99.90;;;;;;7364805;19;20030;-62
2023/03/07 04:08:56;;;;;;;14.10;1.50;;;2.50;99.90;;;;;;7366276;19;20022;-65
2023/03/07 04:11:23;;;;;;;9.73;2.33;;;2.50;99.90;;;;;;7364938;19;20018;-65
2023/03/07 04:13:51;;;;;;;12.82;1.73;;;2.40;99.90;;;;;;7369351;19;20517;-65
2023/03/07 04:16:18;;;;;;;10.52;1.60;;;2.40;99.90;;;;;;7368760;19;20780;-62
2023/03/07 04:18:45;;;;;;;7.28;1.88;;;2.40;99.90;;;;;;7371339;19;20019;-62
2023/03/07 04:21:13;;;;;;;9.35;2.15;;;2.50;99.90;;;;;;7371240;19;20097;-62
2023/03/07 04:23:43;;;;;;;10.15;2.42;;;2.40;99.90;;;;;;7373165;19;20007;-62
2023/03/07 04:26:10;;;;;;;10.27;1.77;;;2.30;99.90;;;;;;7368980;19;20420;-62
2023/03/07 04:28:44;;;;;;;10.93;2.20;;;2.30;99.90;;;;;;7374504;19;20019;-65
2023/03/07 04:31:19;;;;;;;9.98;1.75;;;2.30;99.90;;;;;;7372162;19;20010;-64
2023/03/07 04:33:47;;;;;;;13.55;1.85;;;2.30;99.90;;;;;;7372433;19;20050;-65
2023/03/07 04:36:15;;;;;;;11.23;1.73;;;2.30;99.90;;;;;;7372119;19;20451;-65
2023/03/07 04:38:42;;;;;;;12.48;1.83;;;2.30;99.90;;;;;;7370305;19;20030;-65
2023/03/07 04:41:20;;;;;;;6.65;1.77;;;2.20;99.90;;;;;;7372216;19;20026;-65
2023/03/07 04:43:48;;;;;;;9.40;1.63;;;2.30;99.90;;;;;;7370519;19;20011;-62
2023/03/07 04:46:16;;;;;;;9.30;2.45;;;2.20;99.90;;;;;;7363523;19;20621;-62
2023/03/07 04:48:43;;;;;;;9.80;2.40;;;2.30;99.90;;;;;;7367496;19;20010;-62
2023/03/07 04:51:10;;;;;;;10.95;1.65;;;2.30;99.90;;;;;;7365982;19;20123;-62
2023/03/07 04:53:36;;;;;;;13.10;1.73;;;2.30;99.90;;;;;;7368071;19;20022;-62
2023/03/07 04:56:06;;;;;;;13.32;1.85;;;2.30;99.90;;;;;;7367195;19;20129;-62
2023/03/07 04:58:35;;;;;;;10.90;1.73;;;2.30;99.90;;;;;;7366414;19;20435;-62
2023/03/07 05:01:03;;;;;;;6.65;1.90;;;2.20;99.90;;;;;;7370283;19;20800;-62
2023/03/07 05:03:30;;;;;;;10.07;2.10;;;2.30;99.90;;;;;;7375782;19;20015;-62
2023/03/07 05:06:02;;;;;;;12.88;1.75;;;2.30;99.90;;;;;;7371048;19;20022;-62
2023/03/07 05:08:29;;;;;;;14.55;2.10;;;2.30;99.90;;;;;;7373915;19;20034;-64
2023/03/07 05:10:56;;;;;;;6.55;1.52;;;2.30;99.90;;;;;;7373688;19;20022;-62
2023/03/07 05:13:23;;;;;;;8.23;1.40;;;2.30;99.90;;;;;;7374311;19;20014;-62
2023/03/07 05:15:51;;;;;;;7.07;1.40;;;2.30;99.90;;;;;;7373721;19;20010;-62
2023/03/07 05:18:17;;;;;;;4.40;1.23;;;2.30;99.90;;;;;;7373837;19;20022;-62
2023/03/07 05:20:44;;;;;;;9.10;2.10;;;2.30;99.90;;;;;;7375649;19;20022;-62
2023/03/07 05:23:11;;;;;;;7.65;1.70;;;2.30;99.90;;;;;;7375830;19;20038;-62
2023/03/07 05:25:37;;;;;;;7.18;2.28;;;2.30;99.90;;;;;;7371384;19;20913;-62
2023/03/07 05:28:04;;;;;;;10.55;2.00;;;2.30;99.90;;;;;;7366599;19;20082;-62
2023/03/07 05:30:30;;;;;;;8.85;1.50;;;2.30;99.90;;;;;;7372874;19;20015;-62
2023/03/07 05:32:57;;;;;;;6.97;1.50;;;2.30;99.90;;;;;;7374024;19;20111;-62
2023/03/07 05:35:24;;;;;;;8.82;1.83;;;2.30;99.90;;;;;;7372068;19;20030;-62
2023/03/07 05:37:52;;;;;;;11.70;2.30;;;2.30;99.90;;;;;;7376839;19;20026;-62
2023/03/07 05:40:19;;;;;;;8.70;2.00;;;2.30;99.90;;;;;;7373572;19;20019;-62
2023/03/07 05:42:47;;;;;;;8.75;1.88;;;2.40;99.90;;;;;;7375418;19;20035;-62
2023/03/07 05:45:14;;;;;;;6.05;1.67;;;2.40;99.90;;;;;;7374149;19;20018;-62
2023/03/07 05:47:41;;;;;;;12.13;1.83;;;2.40;99.90;;;;;;7376113;19;20018;-62
2023/03/07 05:50:10;;;;;;;8.23;1.42;;;2.40;99.90;;;;;;7375689;19;20019;-62
2023/03/07 05:52:39;;;;;;;5.18;1.77;;;2.40;99.90;;;;;;7376216;19;20485;-62
2023/03/07 05:55:07;;;;;;;8.77;1.60;;;2.30;99.90;;;;;;7373425;19;20138;-62
2023/03/07 05:57:45;;;;;;;10.52;1.58;;;2.40;99.90;;;;;;7375378;19;20022;-62
2023/03/07 06:00:12;;;;;;;8.90;1.63;;;2.30;99.90;;;;;;7372442;19;20018;-62
2023/03/07 06:02:45;;;;;;;7.47;1.55;;;2.30;99.90;;;;;;7375805;19;20474;-64
2023/03/07 06:05:15;;;;;;;10.35;1.80;;;2.30;99.90;;;;;;7370722;19;20029;-63
2023/03/07 06:07:42;;;;;;;12.35;1.70;;;2.30;99.90;;;;;;7372437;19;20045;-62
2023/03/07 06:10:11;;;;;;;9.45;2.60;;;2.30;99.90;;;;;;7371306;19;20465;-62
2023/03/07 06:12:39;;;;;;;11.98;2.95;;;2.40;99.90;;;;;;7370931;19;20030;-62
2023/03/07 06:15:07;;;;;;;10.77;1.77;;;2.40;99.90;;;;;;7372483;19;20026;-62
2023/03/07 06:17:34;;;;;;;9.82;1.55;;;2.40;99.90;;;;;;7371275;19;20029;-62
2023/03/07 06:20:01;;;;;;;11.48;1.60;;;2.40;99.90;;;;;;7368267;19;20880;-62
2023/03/07 06:22:30;;;;;;;9.00;1.55;;;2.40;99.90;;;;;;7369080;19;20038;-62
2023/03/07 06:24:57;;;;;;;11.35;2.15;;;2.40;99.90;;;;;;7368343;19;20034;-63
2023/03/07 06:27:23;;;;;;;8.65;1.60;;;2.40;99.90;;;;;;7367498;19;20021;-64
2023/03/07 06:29:50;;;;;;;9.05;1.95;;;2.40;99.90;;;;;;7371339;19;20662;-64
2023/03/07 06:32:16;;;;;;;6.78;1.48;;;2.50;99.90;;;;;;7368362;19;20643;-64
2023/03/07 06:34:43;;;;;;;8.82;1.50;;;2.50;99.90;;;;;;7374599;19;20022;-64
2023/03/07 06:37:10;;;;;;;6.53;1.00;;;2.40;99.90;;;;;;7374173;19;20019;-64
2023/03/07 06:39:36;;;;;;;5.55;1.10;;;2.40;99.90;;;;;;7371385;19;20026;-64
2023/03/07 06:42:06;;;;;;;13.20;1.67;;;2.40;99.90;;;;;;7371001;19;20785;-62
2023/03/07 06:44:32;;;;;;;8.77;1.45;;;2.40;99.90;;;;;;7372664;19;20371;-65
2023/03/07 06:46:59;;;;;;;6.32;1.55;;;2.40;99.90;;;;;;7374315;19;20018;-64
2023/03/07 06:49:26;;;;;;;8.77;1.67;;;2.40;99.90;;;;;;7369115;19;20018;-64
2023/03/07 06:51:56;;;;;;;5.18;1.40;;;2.30;99.90;;;;;;7371010;19;20748;-64
2023/03/07 06:54:22;;;;;;;9.65;1.30;;;2.40;99.90;;;;;;7371696;19;20117;-64
2023/03/07 06:56:50;;;;;;;4.10;1.00;;;2.40;99.90;;;;;;7372803;19;20022;-63
2023/03/07 06:59:20;;;;;;;10.45;1.98;;;2.40;99.90;;;;;;7368957;19;20022;-64
2023/03/07 07:01:47;;;;;;;8.25;1.38;;;2.40;99.90;;;;;;7372588;19;20029;-63
2023/03/07 07:04:19;;;;;;;8.30;1.75;;;2.50;99.90;;;;;;7371796;19;20025;-64
2023/03/07 07:06:46;;;;;;;9.45;1.63;;;2.50;99.90;;;;;;7371562;19;20018;-64
2023/03/07 07:09:13;;;;;;;9.57;1.40;;;2.50;99.90;;;;;;7368398;19;20036;-64
2023/03/07 07:11:39;;;;;;;10.23;3.13;;;2.60;99.90;;;;;;7372131;19;20018;-64
2023/03/07 07:14:10;;;;;;;9.88;1.58;;;2.60;99.90;;;;;;7372903;19;20022;-63
2023/03/07 07:16:37;;;;;;;9.82;1.75;;;2.60;99.90;;;;;;7375829;19;20446;-64
2023/03/07 07:19:05;;;;;;;9.13;1.42;;;2.60;99.90;;;;;;7372217;19;20735;-64
2023/03/07 07:21:31;;;;;;;10.32;1.80;;;2.70;99.90;;;;;;7371529;19;20019;-63
2023/03/07 07:23:58;;;;;;;12.13;1.58;;;2.70;99.90;;;;;;7371901;19;20014;-62
2023/03/07 07:26:25;;;;;;;6.47;1.33;;;2.70;99.90;;;;;;7371868;19;20037;-63
2023/03/07 07:28:52;;;;;;;8.45;1.50;;;2.70;99.90;;;;;;7373024;19;20029;-62
2023/03/07 07:31:18;;;;;;;7.43;1.70;;;2.70;99.90;;;;;;7371313;19;20018;-62
2023/03/07 07:33:45;;;;;;;9.90;1.95;;;2.70;99.90;;;;;;7372131;19;20022;-62
2023/03/07 07:36:12;;;;;;;8.63;1.83;;;2.70;99.90;;;;;;7373056;19;20489;-62
2023/03/07 07:38:39;;;;;;;9.25;1.25;;;2.70;99.90;;;;;;7372269;19;20026;-62
2023/03/07 07:41:06;;;;;;;12.73;2.00;;;2.80;99.90;;;;;;7374811;19;20026;-62
2023/03/07 07:43:33;;;;;;;7.45;2.35;;;2.80;99.90;;;;;;7369766;19;20019;-64
2023/03/07 07:46:10;;;;;;;8.13;1.73;;;2.80;99.90;;;;;;7369451;19;20014;-64
2023/03/07 07:48:37;;;;;;;9.77;1.90;;;2.80;99.90;;;;;;7372371;19;20875;-64
2023/03/07 07:51:04;;;;;;;6.88;2.22;;;2.90;99.90;;;;;;7370065;19;20018;-64
2023/03/07 07:53:33;;;;;;;6.57;1.70;;;2.90;99.90;;;;;;7371143;19;20742;-64
2023/03/07 07:56:03;;;;;;;10.13;1.52;;;2.90;99.90;;;;;;7376178;19;20018;-64
2023/03/07 07:58:29;;;;;;;10.02;1.70;;;2.90;99.90;;;;;;7375082;19;20052;-64
2023/03/07 08:00:59;;;;;;;8.52;2.53;;;2.90;99.90;;;;;;7375178;19;20017;-63
2023/03/07 08:03:25;;;;;;;13.88;2.10;;;2.90;99.90;;;;;;7372018;19;20490;-64
2023/03/07 08:05:52;;;;;;;7.65;1.42;;;2.90;99.90;;;;;;7371320;19;20029;-64
2023/03/07 08:08:19;;;;;;;8.02;1.70;;;3.00;99.90;;;;;;7373628;19;20035;-64
2023/03/07 08:10:46;;;;;;;11.05;2.13;;;3.00;99.90;;;;;;7375379;19;20115;-64
2023/03/07 08:13:15;;;;;;;6.90;1.88;;;3.00;99.90;;;;;;7372884;19;20629;-64
2023/03/07 08:15:42;;;;;;;9.10;1.52;;;3.00;99.90;;;;;;7370432;19;20033;-64
2023/03/07 08:18:09;;;;;;;11.95;1.90;;;3.10;99.90;;;;;;7376794;19;20014;-63
2023/03/07 08:20:40;;;;;;;5.28;1.20;;;3.00;99.90;;;;;;7376465;19;20481;-64
2023/03/07 08:23:06;;;;;;;7.70;1.90;;;3.00;99.90;;;;;;7374721;19;20022;-64
2023/03/07 08:25:33;;;;;;;9.38;1.70;;;3.00;99.90;;;;;;7371769;19;20033;-64
2023/03/07 08:28:12;;;;;;;9.45;2.22;;;3.00;99.90;;;;;;7369782;19;20014;-64
2023/03/07 08:30:38;;;;;;;11.68;2.45;;;3.00;99.90;;;;;;7371399;19;20011;-64
2023/03/07 08:33:05;;;;;;;9.45;2.25;;;3.00;99.90;;;;;;7367708;19;20026;-64
2023/03/07 08:35:32;;;;;;;9.32;2.80;;;2.90;99.90;;;;;;7377736;19;20037;-64
2023/03/07 08:37:59;;;;;;;11.60;2.47;;;2.90;99.90;;;;;;7380423;19;20500;-66
2023/03/07 08:40:28;;;;;;;13.20;2.53;;;2.90;99.90;;;;;;7383011;19;20596;-64
2023/03/07 08:42:54;;;;;;;11.77;2.88;;;2.90;99.90;;;;;;7382559;19;20500;-63
2023/03/07 08:45:25;;;;;;;12.35;2.40;;;3.00;99.90;;;;;;7379227;19;20023;-64
2023/03/07 08:47:53;;;;;;;13.40;2.30;;;3.00;99.90;;;;;;7382768;19;20018;-64
2023/03/07 08:50:21;;;;;;;10.32;2.30;;;3.10;99.90;;;;;;7379031;19;20086;-64
2023/03/07 08:56:43;;;;;;;8.55;2.10;;;3.20;99.90;;;;;;7381179;19;20403;-64
2023/03/07 08:59:11;;;;;;;10.77;2.22;;;3.30;99.90;;;;;;7377167;19;20086;-64
2023/03/07 09:01:37;;;;;;;8.00;2.50;;;3.30;99.90;;;;;;7380643;19;20030;-64
2023/03/07 09:04:04;;;;;;;7.57;2.08;;;3.30;99.90;;;;;;7379836;19;20019;-64
2023/03/07 09:06:30;;;;;;;10.10;2.00;;;3.40;99.90;;;;;;7376954;19;20029;-64
2023/03/07 09:08:57;;;;;;;9.88;2.25;;;3.50;99.90;;;;;;7378919;19;20155;-64
2023/03/07 09:11:25;;;;;;;9.07;2.08;;;3.50;99.90;;;;;;7378874;19;20010;-64
2023/03/07 09:13:51;;;;;;;7.22;1.73;;;3.60;99.90;;;;;;7379203;19;20018;-65
2023/03/07 09:16:19;;;;;;;9.18;1.73;;;3.60;99.90;;;;;;7378661;19;20014;-64
2023/03/07 09:18:45;;;;;;;9.55;2.30;;;3.70;99.90;;;;;;7379413;19;20031;-63
2023/03/07 09:21:12;;;;;;;10.90;1.75;;;3.80;99.90;;;;;;7379132;19;20030;-65
2023/03/07 09:23:38;;;;;;;6.13;1.75;;;3.80;99.90;;;;;;7379148;19;20022;-64
2023/03/07 09:26:05;;;;;;;9.30;2.22;;;3.90;99.90;;;;;;7377811;19;20522;-64
2023/03/07 09:28:34;;;;;;;11.70;2.60;;;3.90;99.90;;;;;;7378754;19;20015;-64
2023/03/07 09:31:09;;;;;;;14.05;2.17;;;4.00;99.90;;;;;;7376892;19;20025;-64
2023/03/07 09:33:37;;;;;;;9.57;1.83;;;4.10;99.90;;;;;;7377268;19;20039;-64
2023/03/07 09:36:10;;;;;;;8.57;2.58;;;4.10;99.90;;;;;;7379076;19;20031;-65
2023/03/07 09:38:36;;;;;;;8.50;1.30;;;4.10;99.90;;;;;;7378979;19;20015;-65
2023/03/07 09:41:15;;;;;;;7.72;1.52;;;4.20;99.90;;;;;;7378804;19;20504;-64
2023/03/07 09:44:05;;;;;;;7.65;1.20;;;4.20;99.90;;;;;;7379164;19;20021;-66
2023/03/07 09:47:00;;;;;;;;;;;4.10;99.90;;;;;;7375039;19;20018;-65
2023/03/07 09:49:35;;;;;;;;;;;4.10;99.90;;;;;;7378890;19;19933;-65
2023/03/07 09:52:03;;;;;;;9.07;1.20;;;4.10;99.90;;;;;;7377497;19;19943;-64
2023/03/07 09:54:43;;;;;;;5.55;1.23;;;4.20;99.90;;;;;;7376738;19;20018;-64
2023/03/07 09:57:21;;;;;;;8.73;1.65;;;4.20;99.90;;;;;;7379201;19;20018;-65
2023/03/07 09:59:54;;;;;;;6.15;1.05;;;4.20;99.90;;;;;;7379500;19;20052;-65
2023/03/07 10:02:38;;;;;;;6.97;1.80;;;4.10;99.90;;;;;;7379387;19;20094;-64
2023/03/07 10:05:27;;;;;;;5.72;1.50;;;4.10;99.90;;;;;;7380052;19;20022;-65
2023/03/07 10:07:54;;;;;;;4.35;1.48;;;4.10;99.90;;;;;;7377414;19;20989;-65
2023/03/07 10:10:30;;;;;;;4.25;0.93;;;4.20;99.90;;;;;;7377865;19;20027;-65
2023/03/07 10:13:04;;;;;;;8.77;2.65;;;4.00;99.90;;;;;;7378477;19;20082;-65
2023/03/07 10:15:37;;;;;;;5.55;1.17;;;3.60;99.90;;;;;;7378250;19;20014;-64
2023/03/07 10:18:16;;;;;;;3.63;1.00;;;3.50;99.90;;;;;;7379597;19;20763;-65
2023/03/07 10:21:08;;;;;;;6.25;0.88;;;3.20;99.90;;;;;;7376913;19;20708;-65
2023/03/07 10:23:59;;;;;;;8.15;1.10;;;3.00;99.90;;;;;;7374797;19;20038;-64
2023/03/07 10:26:39;;;;;;;5.80;1.08;;;3.10;99.90;;;;;;7375566;19;20021;-64
2023/03/07 10:29:16;;;;;;;5.20;1.23;;;3.30;99.90;;;;;;7379468;19;20033;-64
2023/03/07 10:31:56;;;;;;;6.88;1.33;;;3.40;99.90;;;;;;7377971;19;20019;-64
2023/03/07 10:34:28;;;;;;;5.63;1.50;;;3.60;99.90;;;;;;7377444;19;20576;-65
2023/03/07 10:37:16;;;;;;;4.88;1.27;;;3.80;99.90;;;;;;7375844;19;20014;-64
2023/03/07 10:39:52;;;;;;;8.77;1.20;;;3.90;99.90;;;;;;7378261;19;20649;-65
2023/03/07 10:42:24;;;;;;;3.30;0.90;;;4.00;99.90;;;;;;7375440;19;20030;-64
2023/03/07 10:44:51;;;;;;;5.47;1.23;;;4.30;99.90;;;;;;7377039;19;20018;-65
2023/03/07 10:47:26;;;;;;;5.40;1.20;;;4.10;99.90;;;;;;7376957;19;20019;-65
2023/03/07 10:50:27;;;;;;;5.13;0.90;;;4.40;99.90;;;;;;7377885;19;20059;-64
2023/03/07 10:53:00;;;;;;;6.43;1.10;;;4.60;99.90;;;;;;7377510;19;20018;-64
2023/03/07 10:55:35;;;;;;;9.35;1.35;;;4.90;99.90;;;;;;7377114;19;20022;-64
2023/03/07 10:58:28;;;;;;;6.40;1.23;;;5.20;99.90;;;;;;7374092;19;20078;-65
2023/03/07 11:01:09;;;;;;;5.90;0.98;;;5.30;99.90;;;;;;7375392;19;20031;-65
2023/03/07 11:03:46;;;;;;;3.55;1.25;;;5.30;99.90;;;;;;7375726;19;20110;-65
2023/03/07 11:06:34;;;;;;;5.55;1.60;;;5.30;99.90;;;;;;7373223;19;20423;-66
2023/03/07 11:09:25;;;;;;;7.72;1.80;;;5.10;99.90;;;;;;7375404;19;20014;-65
2023/03/07 11:11:58;;;;;;;7.63;1.70;;;5.20;99.90;;;;;;7378266;19;20014;-64
2023/03/07 11:14:27;;;;;;;3.95;1.10;;;5.30;99.90;;;;;;7375181;19;20383;-66
2023/03/07 11:16:58;;;;;;;8.48;1.63;;;5.40;99.90;;;;;;7376504;19;20015;-65
2023/03/07 11:19:32;;;;;;;7.43;1.48;;;5.50;99.90;;;;;;7375115;19;20018;-65
2023/03/07 11:22:01;;;;;;;9.27;1.60;;;5.40;99.90;;;;;;7375526;19;20019;-64
2023/03/07 11:24:58;;;;;;;4.13;1.10;;;5.50;99.90;;;;;;7371528;19;20038;-65
2023/03/07 11:27:45;;;;;;;9.48;1.60;;;5.70;99.90;;;;;;7375404;19;20021;-63
2023/03/07 11:30:19;;;;;;;10.05;1.98;;;5.70;99.90;;;;;;7374198;19;20042;-65
2023/03/07 11:33:23;;;;;;;5.70;1.20;;;6.00;99.90;;;;;;7373661;19;20856;-65
2023/03/07 11:36:16;;;;;;;8.05;1.35;;;5.80;99.90;;;;;;7372518;19;20043;-65
2023/03/07 11:38:55;;;;;;;7.53;1.08;;;6.00;99.90;;;;;;7376525;19;20014;-64
2023/03/07 11:41:38;;;;;;;7.78;1.77;;;6.30;99.90;;;;;;7371407;19;20748;-64
2023/03/07 11:44:11;;;;;;;6.05;1.30;;;5.90;99.90;;;;;;7370938;19;20014;-65
2023/03/07 11:46:42;;;;;;;3.95;1.13;;;4.80;99.90;;;;;;7371067;19;20018;-64
2023/03/07 11:49:38;;;;;;;3.15;1.10;;;4.00;99.90;;;;;;7373313;19;20030;-65
2023/03/07 11:52:24;;;;;;;3.33;0.88;;;3.50;99.90;;;;;;7371763;19;20022;-65
2023/03/07 11:55:13;;;;;;;7.88;1.60;;;3.00;99.90;;;;;;7374506;19;20026;-65
2023/03/07 11:58:17;;;;;;;6.50;1.00;;;2.80;99.90;;;;;;7374059;19;20026;-64
2023/03/07 12:01:13;;;;;;;4.90;1.27;;;2.80;99.90;;;;;;7374608;19;20791;-65
2023/03/07 12:04:14;;;;;;;5.38;1.23;;;2.80;99.90;;;;;;7373257;19;20022;-66
2023/03/07 12:07:06;;;;;;;7.72;1.42;;;2.70;99.90;;;;;;7373968;19;20507;-66
2023/03/07 12:10:15;;;;;;;12.90;2.00;;;2.70;99.90;;;;;;7375524;19;21011;-63
2023/03/07 12:13:29;;;;;;;5.75;1.45;;;2.50;99.90;;;;;;7369885;19;20837;-62
2023/03/07 12:16:07;;;;;;;11.77;1.40;;;2.60;99.90;;;;;;7370547;19;20025;-63
2023/03/07 12:18:57;;;;;;;5.88;1.77;;;2.70;99.90;;;;;;7373602;19;20018;-62
2023/03/07 12:21:45;;;;;;;6.55;1.17;;;2.80;99.90;;;;;;7373966;19;20623;-62
2023/03/07 12:24:26;;;;;;;5.78;1.55;;;2.90;99.90;;;;;;7372397;19;20021;-62
2023/03/07 12:27:18;;;;;;;9.98;2.28;;;3.10;99.90;;;;;;7369783;19;20043;-63
2023/03/07 12:29:49;;;;;;;9.10;1.58;;;3.20;99.90;;;;;;7373706;19;20019;-62
2023/03/07 12:32:22;;;;;;;8.50;1.77;;;3.30;99.90;;;;;;7371495;19;20018;-62
2023/03/07 12:35:19;;;;;;;8.52;1.83;;;3.40;99.90;;;;;;7368980;19;21477;-62
2023/03/07 12:38:02;;;;;;;11.85;1.67;;;3.60;99.90;;;;;;7372634;19;20018;-63
2023/03/07 12:40:38;;;;;;;6.15;1.77;;;3.80;99.90;;;;;;7374664;19;20019;-63
2023/03/07 12:43:26;;;;;;;10.70;1.65;;;4.00;99.90;;;;;;7372656;19;20612;-63
2023/03/07 12:46:30;;;;;;;7.22;1.60;;;4.10;99.90;;;;;;7367220;19;20121;-63
2023/03/07 12:49:15;;;;;;;10.10;1.92;;;4.20;99.90;;;;;;7367872;19;20876;-65
2023/03/07 12:51:52;;;;;;;10.68;1.58;;;4.40;99.90;;;;;;7373262;19;20014;-64
2023/03/07 12:54:28;;;;;;;7.35;1.60;;;4.40;99.90;;;;;;7371784;19;20052;-63
2023/03/07 12:57:11;;;;;;;6.05;1.70;;;4.40;99.90;;;;;;7373091;19;20015;-63
2023/03/07 12:59:41;;;;;;;10.23;2.28;;;4.50;99.90;;;;;;7373447;19;20015;-63
2023/03/07 13:02:15;;;;;;;8.93;1.80;;;4.60;99.90;;;;;;7372378;19;20023;-63
2023/03/07 13:04:44;;;;;;;7.65;1.70;;;4.70;99.90;;;;;;7368222;19;20024;-63
2023/03/07 13:07:21;;;;;;;9.20;1.50;;;4.80;99.90;;;;;;7372366;19;20024;-63
2023/03/07 13:09:51;;;;;;;9.23;2.05;;;4.90;99.90;;;;;;7370343;19;20025;-63
2023/03/07 13:12:25;;;;;;;9.07;1.83;;;4.90;99.90;;;;;;7371194;19;20030;-64
2023/03/07 13:15:01;;;;;;;9.25;1.40;;;5.00;99.90;;;;;;7371185;19;20026;-64
2023/03/07 13:17:30;;;;;;;6.10;1.60;;;5.10;99.90;;;;;;7366705;19;20026;-64
2023/03/07 13:20:01;;;;;;;9.90;1.50;;;5.10;99.90;;;;;;7365874;19;20508;-64
2023/03/07 13:22:27;;;;;;;8.55;1.48;;;5.20;99.90;;;;;;7373813;19;20038;-64
2023/03/07 13:24:55;;;;;;;7.13;1.40;;;5.40;99.90;;;;;;7374824;19;20039;-64